Time;durP1;ratioP1;P1;durP2;ratioP2;P2;SDS_P1;SDS_P2;PMS_P1;PMS_P2;Temp;Humidity;BMP_temperature;BMP_pressure;BME280_temperature;BME280_humidity;BME280_pressure;Samples;Min_cycle;Max_cycle;Signal;HPM_P1;HPM_P2
2022/01/26 00:07:53;;;;;;;61.67;31.65;;;;;;;;;;6221577;23;20054;-87
2022/01/26 00:10:20;;;;;;;51.08;29.02;;;;;;;;;;6221649;23;20012;-88
2022/01/26 00:12:46;;;;;;;60.45;31.17;;;;;;;;;;6195175;23;19999;-87
2022/01/26 00:15:12;;;;;;;60.92;31.13;;;;;;;;;;6195504;23;20062;-87
2022/01/26 00:17:38;;;;;;;75.88;32.83;;;;;;;;;;6221692;23;20000;-87
2022/01/26 00:28:56;;;;;;;80.82;36.55;;;;;;;;;;6221361;23;20074;-87
2022/01/26 00:39:19;;;;;;;55.88;31.05;;;;;;;;;;6221066;23;20039;-87
2022/01/26 00:41:46;;;;;;;60.83;31.70;;;;;;;;;;6221426;23;20004;-87
2022/01/26 00:44:12;;;;;;;55.50;31.70;;;;;;;;;;6194233;23;20047;-88
2022/01/26 00:46:42;;;;;;;52.67;29.60;;;;;;;;;;6221344;23;20007;-87
2022/01/26 00:49:08;;;;;;;55.67;29.45;;;;;;;;;;6221375;23;20012;-86
2022/01/26 00:51:34;;;;;;;51.28;28.63;;;;;;;;;;6194734;23;20371;-87
2022/01/26 00:54:06;;;;;;;47.20;26.98;;;;;;;;;;6220949;23;20001;-87
2022/01/26 00:56:32;;;;;;;51.83;30.00;;;;;;;;;;6221028;23;20422;-87
2022/01/26 00:58:58;;;;;;;49.10;28.38;;;;;;;;;;6221495;23;20260;-88
2022/01/26 01:01:25;;;;;;;43.35;27.25;;;;;;;;;;6220716;23;20021;-86
2022/01/26 01:03:51;;;;;;;52.58;28.83;;;;;;;;;;6220891;23;20005;-86
2022/01/26 01:06:23;;;;;;;54.50;31.83;;;;;;;;;;6221020;23;20067;-87
2022/01/26 01:11:56;;;;;;;53.17;30.88;;;;;;;;;;6221147;23;19999;-86
2022/01/26 01:14:23;;;;;;;50.78;28.98;;;;;;;;;;6194668;23;20351;-86
2022/01/26 01:16:51;;;;;;;49.03;27.13;;;;;;;;;;6222624;23;20010;-88
2022/01/26 01:19:32;;;;;;;39.08;23.55;;;;;;;;;;6222932;23;20005;-89
2022/01/26 01:22:30;;;;;;;42.67;24.20;;;;;;;;;;6196464;23;20001;-89
2022/01/26 01:30:48;;;;;;;36.30;22.23;;;;;;;;;;6222938;23;20023;-88
2022/01/26 01:33:30;;;;;;;36.70;22.30;;;;;;;;;;6223348;23;20288;-88
2022/01/26 01:35:58;;;;;;;36.28;22.45;;;;;;;;;;6196113;23;20007;-88
2022/01/26 01:38:27;;;;;;;39.28;22.23;;;;;;;;;;6222653;23;20233;-89
2022/01/26 01:43:56;;;;;;;41.47;22.80;;;;;;;;;;6222720;23;20092;-89
2022/01/26 01:46:22;;;;;;;42.05;24.50;;;;;;;;;;6222737;23;20000;-88
2022/01/26 01:48:48;;;;;;;42.88;25.38;;;;;;;;;;6222664;23;20001;-87
2022/01/26 01:51:17;;;;;;;41.20;24.92;;;;;;;;;;6223010;23;19999;-90
2022/01/26 01:53:44;;;;;;;46.78;25.95;;;;;;;;;;6222851;23;20024;-89
2022/01/26 01:56:12;;;;;;;41.08;24.77;;;;;;;;;;6222519;23;19997;-89
2022/01/26 01:58:39;;;;;;;44.20;25.45;;;;;;;;;;6223028;23;20072;-88
2022/01/26 02:01:06;;;;;;;44.22;25.48;;;;;;;;;;6196185;23;20024;-88
2022/01/26 02:03:32;;;;;;;44.35;26.48;;;;;;;;;;6222429;23;20012;-88
2022/01/26 02:05:58;;;;;;;45.65;25.90;;;;;;;;;;6196236;23;20036;-88
2022/01/26 02:08:24;;;;;;;46.08;25.67;;;;;;;;;;6222430;23;20012;-87
2022/01/26 02:10:51;;;;;;;42.22;25.13;;;;;;;;;;6196402;23;20001;-89
2022/01/26 02:56:08;;;;;;;39.50;23.33;;;;;;;;;;6222112;23;20055;-87
2022/01/26 03:01:35;;;;;;;44.15;24.52;;;;;;;;;;6224270;23;20112;-88
2022/01/26 03:07:12;;;;;;;40.72;24.95;;;;;;;;;;6232068;23;20012;-88
2022/01/26 03:09:29;;;;;;;41.25;24.17;;;;;;;;;;6214920;23;20020;-87
2022/01/26 03:11:56;;;;;;;44.80;24.08;;;;;;;;;;6195772;23;20009;-87
2022/01/26 03:17:30;;;;;;;42.55;25.20;;;;;;;;;;6221948;23;20054;-88
2022/01/26 03:20:02;;;;;;;39.42;23.75;;;;;;;;;;6195913;23;20000;-88
2022/01/26 03:36:14;;;;;;;40.30;24.20;;;;;;;;;;6082159;23;20082;-89
2022/01/26 03:38:44;;;;;;;41.22;24.05;;;;;;;;;;6071919;23;20011;-87
2022/01/26 03:41:50;;;;;;;40.40;23.95;;;;;;;;;;6072304;23;20033;-89
2022/01/26 03:44:17;;;;;;;49.03;24.67;;;;;;;;;;6047839;23;20007;-88
2022/01/26 03:46:44;;;;;;;43.42;24.88;;;;;;;;;;6071950;23;20003;-88
2022/01/26 03:49:11;;;;;;;41.33;25.20;;;;;;;;;;6071995;23;20007;-88
2022/01/26 03:51:37;;;;;;;42.63;24.38;;;;;;;;;;6048227;23;20393;-88
2022/01/26 03:54:04;;;;;;;41.90;25.02;;;;;;;;;;6071995;23;20051;-88
2022/01/26 03:56:30;;;;;;;39.28;24.40;;;;;;;;;;6072087;23;19999;-88
2022/01/26 03:58:56;;;;;;;40.13;24.70;;;;;;;;;;6072194;23;20293;-88
2022/01/26 04:01:23;;;;;;;40.90;23.40;;;;;;;;;;6084239;23;20018;-88
2022/01/26 04:03:49;;;;;;;41.35;24.20;;;;;;;;;;6076731;23;20014;-89
2022/01/26 04:06:15;;;;;;;40.53;25.17;;;;;;;;;;6120427;23;20012;-89
2022/01/26 04:08:43;;;;;;;42.70;24.08;;;;;;;;;;6191176;23;20007;-87
2022/01/26 04:11:28;;;;;;;51.22;26.83;;;;;;;;;;6191404;23;20005;-88
2022/01/26 04:13:54;;;;;;;45.90;27.88;;;;;;;;;;6189954;23;20008;-88
2022/01/26 04:16:22;;;;;;;44.95;26.48;;;;;;;;;;6190718;23;20360;-88
2022/01/26 04:18:48;;;;;;;46.95;26.35;;;;;;;;;;6191732;23;20364;-89
2022/01/26 04:23:51;;;;;;;58.75;30.48;;;;;;;;;;6201629;23;20013;-89
2022/01/26 04:26:21;;;;;;;54.47;29.23;;;;;;;;;;6191381;23;20005;-88
2022/01/26 04:28:54;;;;;;;55.97;30.27;;;;;;;;;;6191158;23;20001;-89
2022/01/26 04:31:21;;;;;;;;;;;;;;;;;;6190340;23;20276;-88
2022/01/26 04:33:47;;;;;;;73.53;34.00;;;;;;;;;;6191211;23;19979;-88
2022/01/26 04:36:19;;;;;;;75.65;36.13;;;;;;;;;;6191386;23;20004;-88
2022/01/26 04:38:50;;;;;;;94.00;42.00;;;;;;;;;;6191078;23;20009;-88
2022/01/26 04:43:52;;;;;;;129.30;49.60;;;;;;;;;;6201391;23;20020;-87
2022/01/26 04:46:18;;;;;;;144.02;54.92;;;;;;;;;;6191216;23;20013;-89
2022/01/26 04:48:44;;;;;;;94.47;42.50;;;;;;;;;;6190988;23;20371;-89
2022/01/26 04:51:11;;;;;;;101.13;44.88;;;;;;;;;;6191020;23;19997;-89
2022/01/26 04:53:37;;;;;;;79.53;38.42;;;;;;;;;;6191286;23;19997;-90
2022/01/26 04:56:03;;;;;;;52.80;28.48;;;;;;;;;;6191425;23;19997;-88
2022/01/26 04:58:29;;;;;;;48.47;27.38;;;;;;;;;;6191135;23;20012;-87
2022/01/26 05:00:55;;;;;;;47.75;26.90;;;;;;;;;;6198006;23;20028;-87
2022/01/26 05:03:21;;;;;;;47.85;26.75;;;;;;;;;;6220900;23;20005;-87
2022/01/26 05:05:47;;;;;;;52.38;28.40;;;;;;;;;;6221064;23;20011;-88
2022/01/26 05:08:13;;;;;;;50.90;28.75;;;;;;;;;;6194840;23;20252;-88
2022/01/26 05:14:02;;;;;;;50.47;30.15;;;;;;;;;;6220936;23;20263;-88
2022/01/26 05:16:28;;;;;;;50.13;29.05;;;;;;;;;;6220918;23;20001;-88
2022/01/26 05:18:55;;;;;;;48.80;30.58;;;;;;;;;;6221117;23;20303;-88
2022/01/26 05:21:25;;;;;;;46.70;28.13;;;;;;;;;;6194817;23;20008;-89
2022/01/26 05:23:51;;;;;;;48.25;29.08;;;;;;;;;;6194744;23;20016;-88
2022/01/26 05:26:17;;;;;;;50.90;29.80;;;;;;;;;;6221122;23;20027;-88
2022/01/26 05:28:43;;;;;;;46.75;28.45;;;;;;;;;;6194439;23;20008;-88
2022/01/26 05:31:10;;;;;;;60.70;32.97;;;;;;;;;;6220797;23;20017;-88
2022/01/26 05:33:36;;;;;;;57.80;36.38;;;;;;;;;;6221134;23;19997;-87
2022/01/26 05:36:03;;;;;;;57.75;33.67;;;;;;;;;;6221062;23;19997;-87
2022/01/26 05:38:29;;;;;;;59.63;34.00;;;;;;;;;;6220795;23;20271;-88
2022/01/26 05:47:03;;;;;;;64.45;35.80;;;;;;;;;;6220738;23;20066;-87
2022/01/26 05:49:30;;;;;;;64.10;36.58;;;;;;;;;;6194620;23;20271;-87
2022/01/26 05:51:56;;;;;;;85.55;43.85;;;;;;;;;;6221323;23;20024;-87
2022/01/26 05:54:22;;;;;;;106.40;53.47;;;;;;;;;;6221051;23;20074;-87
2022/01/26 05:59:53;;;;;;;78.70;42.63;;;;;;;;;;6220837;23;20019;-88
2022/01/26 06:02:19;;;;;;;64.63;38.58;;;;;;;;;;6221268;23;20023;-87
2022/01/26 06:04:46;;;;;;;66.60;38.20;;;;;;;;;;6196540;23;20008;-86
2022/01/26 06:07:12;;;;;;;68.38;40.47;;;;;;;;;;6195787;23;20008;-88
2022/01/26 06:09:38;;;;;;;73.30;42.58;;;;;;;;;;6196267;23;20004;-86
2022/01/26 06:15:08;;;;;;;77.07;44.85;;;;;;;;;;6222573;23;20055;-86
2022/01/26 06:17:34;;;;;;;74.85;44.15;;;;;;;;;;6196131;23;20004;-87
2022/01/26 06:20:00;;;;;;;84.20;44.88;;;;;;;;;;6221656;23;20110;-87
2022/01/26 06:22:26;;;;;;;94.25;50.13;;;;;;;;;;6222758;23;20008;-87
2022/01/26 06:24:54;;;;;;;117.40;59.40;;;;;;;;;;6196400;23;20008;-87
2022/01/26 06:27:20;;;;;;;123.28;58.67;;;;;;;;;;6222092;23;20000;-87
2022/01/26 06:29:46;;;;;;;152.05;70.63;;;;;;;;;;6222256;23;20095;-87
2022/01/26 06:32:14;;;;;;;162.45;78.93;;;;;;;;;;6222284;23;19997;-88
2022/01/26 06:34:40;;;;;;;108.47;52.40;;;;;;;;;;6195897;23;20032;-87
2022/01/26 06:37:06;;;;;;;102.57;54.55;;;;;;;;;;6222758;23;20008;-87
2022/01/26 06:39:33;;;;;;;125.60;70.07;;;;;;;;;;6222447;23;20291;-87
2022/01/26 06:49:58;;;;;;;87.05;48.25;;;;;;;;;;6232309;23;20008;-86
2022/01/26 06:52:24;;;;;;;94.28;53.15;;;;;;;;;;6222221;23;20359;-87
2022/01/26 06:54:50;;;;;;;100.32;57.53;;;;;;;;;;6195955;23;20001;-86
2022/01/26 06:57:16;;;;;;;102.55;56.47;;;;;;;;;;6222025;23;20088;-87
2022/01/26 06:59:42;;;;;;;87.72;53.13;;;;;;;;;;6221614;23;20013;-87
2022/01/26 07:02:08;;;;;;;113.57;68.05;;;;;;;;;;6221470;23;20016;-87
2022/01/26 07:04:34;;;;;;;132.10;77.93;;;;;;;;;;6222288;23;20287;-87
2022/01/26 07:07:00;;;;;;;127.00;69.65;;;;;;;;;;6195517;23;20031;-87
2022/01/26 07:09:26;;;;;;;141.77;78.22;;;;;;;;;;6195599;23;20004;-86
2022/01/26 07:23:10;;;;;;;110.15;69.00;;;;;;;;;;6221666;23;20019;-87
2022/01/26 07:25:36;;;;;;;132.75;83.35;;;;;;;;;;6221942;23;20004;-86
2022/01/26 07:28:04;;;;;;;88.28;54.05;;;;;;;;;;6221257;23;20024;-86
2022/01/26 07:30:31;;;;;;;82.70;47.22;;;;;;;;;;6221897;23;20009;-86
2022/01/26 07:32:57;;;;;;;78.97;46.55;;;;;;;;;;6195149;23;20005;-87
2022/01/26 07:35:23;;;;;;;80.97;46.00;;;;;;;;;;6221837;23;20081;-87
2022/01/26 07:37:52;;;;;;;69.95;38.58;;;;;;;;;;6221355;23;20013;-87
2022/01/26 07:40:18;;;;;;;62.55;36.95;;;;;;;;;;6221596;23;20426;-87
2022/01/26 07:42:44;;;;;;;61.83;36.63;;;;;;;;;;6221879;23;20001;-87
2022/01/26 07:45:11;;;;;;;93.10;41.88;;;;;;;;;;6195279;23;20087;-87
2022/01/26 07:47:38;;;;;;;69.97;36.42;;;;;;;;;;6195154;23;20036;-87
2022/01/26 07:50:06;;;;;;;69.43;39.08;;;;;;;;;;6221797;23;20020;-86
2022/01/26 07:52:34;;;;;;;68.90;39.90;;;;;;;;;;6221512;23;20009;-86
2022/01/26 07:55:00;;;;;;;59.65;34.03;;;;;;;;;;6194699;23;20002;-87
2022/01/26 07:57:26;;;;;;;62.67;35.15;;;;;;;;;;6195326;23;20009;-88
2022/01/26 07:59:53;;;;;;;70.47;39.85;;;;;;;;;;6221765;23;20009;-87
2022/01/26 08:02:21;;;;;;;57.05;33.65;;;;;;;;;;6221354;23;20021;-88
2022/01/26 08:04:47;;;;;;;56.70;33.58;;;;;;;;;;6221813;23;20064;-89
2022/01/26 08:07:13;;;;;;;66.53;37.10;;;;;;;;;;6221054;23;20005;-89
2022/01/26 08:09:44;;;;;;;68.00;38.90;;;;;;;;;;6195031;23;20005;-89
2022/01/26 08:12:13;;;;;;;67.20;38.38;;;;;;;;;;6194628;23;20032;-88
2022/01/26 08:14:39;;;;;;;60.75;34.72;;;;;;;;;;6221150;23;19992;-89
2022/01/26 08:17:06;;;;;;;68.30;38.38;;;;;;;;;;6194862;23;20066;-89
2022/01/26 08:19:32;;;;;;;62.10;36.33;;;;;;;;;;6221378;23;20011;-89
2022/01/26 08:22:00;;;;;;;60.00;36.67;;;;;;;;;;6221536;23;20000;-89
2022/01/26 08:24:26;;;;;;;62.88;35.83;;;;;;;;;;6194899;23;20007;-90
2022/01/26 08:26:54;;;;;;;84.43;45.53;;;;;;;;;;6221128;23;20067;-89
2022/01/26 08:29:36;;;;;;;86.75;46.55;;;;;;;;;;6221414;23;20256;-89
2022/01/26 08:32:02;;;;;;;71.65;40.17;;;;;;;;;;6221439;23;20264;-89
2022/01/26 08:34:28;;;;;;;100.53;52.47;;;;;;;;;;6195190;23;20005;-88
2022/01/26 08:36:54;;;;;;;66.70;35.75;;;;;;;;;;6221067;23;20360;-89
2022/01/26 08:39:20;;;;;;;74.10;38.15;;;;;;;;;;6221398;23;20005;-89
2022/01/26 08:41:47;;;;;;;94.82;45.00;;;;;;;;;;6221501;23;20067;-89
2022/01/26 08:44:13;;;;;;;112.47;54.17;;;;;;;;;;6195239;23;20053;-88
2022/01/26 08:46:39;;;;;;;121.50;56.80;;;;;;;;;;6194290;23;20007;-89
2022/01/26 08:49:05;;;;;;;187.80;77.40;;;;;;;;;;6220811;23;20000;-89
2022/01/26 08:51:31;;;;;;;141.35;59.30;;;;;;;;;;6220928;23;20015;-89
2022/01/26 08:53:58;;;;;;;126.03;54.00;;;;;;;;;;6220997;23;20003;-89
2022/01/26 08:56:24;;;;;;;164.50;68.57;;;;;;;;;;6220836;23;20136;-89
2022/01/26 08:58:50;;;;;;;161.23;67.05;;;;;;;;;;6195225;23;20092;-91
2022/01/26 09:01:16;;;;;;;132.63;58.60;;;;;;;;;;6222108;23;20028;-89
2022/01/26 09:03:43;;;;;;;123.70;56.42;;;;;;;;;;6221894;23;20058;-88
2022/01/26 09:06:09;;;;;;;94.13;49.38;;;;;;;;;;6220648;23;20005;-89
2022/01/26 09:08:41;;;;;;;105.05;54.38;;;;;;;;;;6221208;23;20072;-89
2022/01/26 09:11:07;;;;;;;102.25;53.22;;;;;;;;;;6221057;23;20440;-89
2022/01/26 09:13:34;;;;;;;111.05;55.15;;;;;;;;;;6221076;23;20025;-90
2022/01/26 09:16:02;;;;;;;104.85;50.35;;;;;;;;;;6221164;23;20002;-90
2022/01/26 09:18:49;;;;;;;123.22;54.58;;;;;;;;;;6220638;23;20396;-89
2022/01/26 09:21:16;;;;;;;112.40;46.88;;;;;;;;;;6220962;23;20004;-90
2022/01/26 09:23:42;;;;;;;122.20;51.10;;;;;;;;;;6221246;23;20004;-90
2022/01/26 09:26:08;;;;;;;142.07;56.28;;;;;;;;;;6221301;23;20015;-90
2022/01/26 09:28:34;;;;;;;136.35;58.90;;;;;;;;;;6194738;23;20054;-89
2022/01/26 09:31:01;;;;;;;168.88;71.10;;;;;;;;;;6221261;23;20382;-89
2022/01/26 09:33:27;;;;;;;163.00;65.72;;;;;;;;;;6194744;23;20079;-89
2022/01/26 09:35:53;;;;;;;261.92;98.18;;;;;;;;;;6220464;23;20004;-89
2022/01/26 09:38:19;;;;;;;191.50;75.50;;;;;;;;;;6223052;23;20005;-91
2022/01/26 09:40:47;;;;;;;182.57;72.30;;;;;;;;;;6222957;23;20058;-88
2022/01/26 09:43:14;;;;;;;223.90;83.10;;;;;;;;;;6223104;23;20004;-88
2022/01/26 09:45:40;;;;;;;361.08;132.75;;;;;;;;;;6222685;23;19997;-88
2022/01/26 09:48:07;;;;;;;180.27;70.47;;;;;;;;;;6222779;23;20035;-88
2022/01/26 09:50:34;;;;;;;164.80;68.93;;;;;;;;;;6222970;23;19997;-84
2022/01/26 09:53:00;;;;;;;217.25;80.60;;;;;;;;;;6195704;23;20336;-87
2022/01/26 09:55:26;;;;;;;147.65;62.90;;;;;;;;;;6222991;23;20031;-86
2022/01/26 09:57:57;;;;;;;121.38;54.63;;;;;;;;;;6196112;23;20005;-87
2022/01/26 10:00:24;;;;;;;134.63;57.95;;;;;;;;;;6222196;23;20013;-86
2022/01/26 10:03:00;;;;;;;185.23;75.22;;;;;;;;;;6222171;23;20015;-86
2022/01/26 10:05:26;;;;;;;154.38;66.55;;;;;;;;;;6222271;23;20029;-86
2022/01/26 10:08:08;;;;;;;215.32;88.55;;;;;;;;;;6222276;23;20001;-86
2022/01/26 10:16:01;;;;;;;222.63;94.00;;;;;;;;;;6222261;23;20011;-85
2022/01/26 10:18:30;;;;;;;477.08;211.30;;;;;;;;;;6222657;23;20000;-85
2022/01/26 10:20:57;;;;;;;201.43;82.72;;;;;;;;;;6196107;23;20008;-85
2022/01/26 10:23:27;;;;;;;120.65;54.97;;;;;;;;;;6222712;23;20024;-85
2022/01/26 10:26:02;;;;;;;153.90;71.05;;;;;;;;;;6222568;23;20012;-86
2022/01/26 10:28:40;;;;;;;128.82;61.03;;;;;;;;;;6222253;23;20009;-85
2022/01/26 10:31:13;;;;;;;117.47;61.75;;;;;;;;;;6222737;23;20008;-85
2022/01/26 10:33:39;;;;;;;105.63;51.85;;;;;;;;;;6196045;23;20079;-86
2022/01/26 10:36:05;;;;;;;184.95;89.10;;;;;;;;;;6222589;23;20000;-85
2022/01/26 10:38:31;;;;;;;381.08;164.13;;;;;;;;;;6195757;23;20004;-86
2022/01/26 10:41:00;;;;;;;237.32;100.72;;;;;;;;;;6222100;23;20004;-86
2022/01/26 10:43:29;;;;;;;171.90;76.18;;;;;;;;;;6222128;23;20001;-86
2022/01/26 10:45:59;;;;;;;331.52;140.90;;;;;;;;;;6222499;23;19996;-86
2022/01/26 10:48:37;;;;;;;79.93;43.70;;;;;;;;;;6221867;23;20005;-85
2022/01/26 10:53:55;;;;;;;173.65;71.60;;;;;;;;;;6222286;23;20005;-86
2022/01/26 10:56:21;;;;;;;409.15;164.15;;;;;;;;;;6222034;23;20008;-86
2022/01/26 10:58:47;;;;;;;147.95;63.85;;;;;;;;;;6195807;23;20008;-85
2022/01/26 11:01:13;;;;;;;195.07;88.75;;;;;;;;;;6221931;23;20021;-86
2022/01/26 11:03:40;;;;;;;110.85;51.40;;;;;;;;;;6195697;23;20005;-86
2022/01/26 11:06:07;;;;;;;438.75;217.43;;;;;;;;;;6222273;23;20004;-86
2022/01/26 11:08:37;;;;;;;498.00;262.13;;;;;;;;;;6195459;23;20009;-86
2022/01/26 11:11:03;;;;;;;171.07;65.20;;;;;;;;;;6195695;23;20087;-86
2022/01/26 11:13:30;;;;;;;159.63;69.78;;;;;;;;;;6222320;23;20047;-86
2022/01/26 11:16:10;;;;;;;332.55;145.15;;;;;;;;;;6221720;23;19993;-86
2022/01/26 11:18:51;;;;;;;171.10;78.70;;;;;;;;;;6221625;23;20000;-86
2022/01/26 11:21:27;;;;;;;107.25;50.08;;;;;;;;;;6195605;23;20012;-86
2022/01/26 11:24:04;;;;;;;99.32;47.92;;;;;;;;;;6221855;23;20004;-86
2022/01/26 11:26:30;;;;;;;89.57;44.05;;;;;;;;;;6195500;23;20375;-86
2022/01/26 11:28:57;;;;;;;199.15;89.32;;;;;;;;;;6221877;23;20027;-86
2022/01/26 11:31:24;;;;;;;98.10;53.60;;;;;;;;;;6222142;23;20009;-86
2022/01/26 11:33:51;;;;;;;85.38;43.75;;;;;;;;;;6222154;23;20024;-85
2022/01/26 11:36:18;;;;;;;164.40;72.43;;;;;;;;;;6221882;23;20076;-86
2022/01/26 11:42:11;;;;;;;99.45;48.60;;;;;;;;;;6194797;23;20004;-86
2022/01/26 11:47:23;;;;;;;161.35;70.47;;;;;;;;;;6221606;23;20283;-86
2022/01/26 11:49:51;;;;;;;102.82;48.55;;;;;;;;;;6195401;23;20007;-86
2022/01/26 11:52:24;;;;;;;109.05;49.20;;;;;;;;;;6195081;23;20005;-86
2022/01/26 11:54:53;;;;;;;103.68;50.33;;;;;;;;;;6221413;23;19997;-86
2022/01/26 11:57:21;;;;;;;87.65;43.22;;;;;;;;;;6221728;23;20020;-86
2022/01/26 12:00:11;;;;;;;89.68;45.67;;;;;;;;;;6194845;23;20012;-86
2022/01/26 12:05:07;;;;;;;120.38;54.40;;;;;;;;;;6231400;23;20036;-86
2022/01/26 12:07:33;;;;;;;77.38;41.25;;;;;;;;;;6194989;23;20004;-86
2022/01/26 12:10:03;;;;;;;76.35;40.92;;;;;;;;;;6194968;23;20068;-86
2022/01/26 12:12:29;;;;;;;104.25;46.03;;;;;;;;;;6194902;23;20265;-86
2022/01/26 12:14:58;;;;;;;102.50;43.75;;;;;;;;;;6194970;23;20091;-87
2022/01/26 12:17:28;;;;;;;68.95;37.28;;;;;;;;;;6221302;23;20383;-86
2022/01/26 12:31:58;;;;;;;65.30;35.17;;;;;;;;;;6221499;23;20008;-86
2022/01/26 12:34:21;;;;;;;76.70;39.97;;;;;;;;;;6160716;23;20016;-86
2022/01/26 12:37:02;;;;;;;70.85;35.72;;;;;;;;;;6159229;23;20124;-86
2022/01/26 12:42:40;;;;;;;67.90;36.10;;;;;;;;;;6072183;23;20002;-85
2022/01/26 12:45:06;;;;;;;73.88;39.28;;;;;;;;;;6071618;23;20108;-86
2022/01/26 12:47:33;;;;;;;67.15;33.92;;;;;;;;;;6071500;23;20358;-85
2022/01/26 12:49:59;;;;;;;164.55;70.88;;;;;;;;;;6071284;23;20006;-85
2022/01/26 12:52:25;;;;;;;73.25;36.95;;;;;;;;;;6071505;23;20010;-86
2022/01/26 12:54:51;;;;;;;70.28;38.00;;;;;;;;;;6071459;23;20433;-86
2022/01/26 12:57:18;;;;;;;62.97;32.85;;;;;;;;;;6071502;23;20047;-85
2022/01/26 12:59:44;;;;;;;64.78;34.75;;;;;;;;;;6071579;23;20018;-86
2022/01/26 13:02:10;;;;;;;86.18;42.97;;;;;;;;;;6071156;23;20019;-86
2022/01/26 13:04:37;;;;;;;80.93;43.35;;;;;;;;;;6071341;23;20075;-86
2022/01/26 13:07:04;;;;;;;84.38;42.78;;;;;;;;;;6071345;23;20011;-86
2022/01/26 13:09:38;;;;;;;78.03;39.92;;;;;;;;;;6071489;23;19999;-86
2022/01/26 13:12:04;;;;;;;510.42;202.60;;;;;;;;;;6107009;23;20009;-85
2022/01/26 13:14:42;;;;;;;87.68;43.42;;;;;;;;;;6132810;23;20002;-86
2022/01/26 13:17:36;;;;;;;111.40;50.47;;;;;;;;;;6108255;23;20006;-86
2022/01/26 13:41:20;;;;;;;66.28;36.80;;;;;;;;;;6231345;23;20008;-85
2022/01/26 13:59:47;;;;;;;149.10;65.90;;;;;;;;;;6136499;23;20274;-84
2022/01/26 14:02:13;;;;;;;97.05;47.45;;;;;;;;;;6132227;23;20095;-84
2022/01/26 14:04:39;;;;;;;77.30;42.17;;;;;;;;;;6132138;23;20396;-84
2022/01/26 14:07:06;;;;;;;79.65;42.33;;;;;;;;;;6132295;23;20392;-84
2022/01/26 14:09:32;;;;;;;59.70;33.80;;;;;;;;;;6132119;23;20002;-84
2022/01/26 14:12:00;;;;;;;69.90;37.25;;;;;;;;;;6132284;23;20373;-85
2022/01/26 14:14:33;;;;;;;73.05;39.63;;;;;;;;;;6132161;23;20365;-84
2022/01/26 14:17:01;;;;;;;79.68;41.75;;;;;;;;;;6132217;23;20307;-85
2022/01/26 14:19:37;;;;;;;101.93;50.28;;;;;;;;;;6107306;23;20369;-84
2022/01/26 14:27:18;;;;;;;83.88;43.13;;;;;;;;;;6132047;23;20017;-84
2022/01/26 14:40:44;;;;;;;84.20;42.63;;;;;;;;;;6222118;23;20015;-84
2022/01/26 14:54:22;;;;;;;142.38;76.82;;;;;;;;;;6231971;23;20005;-84
2022/01/26 15:33:14;;;;;;;118.10;66.05;;;;;;;;;;6130487;23;20134;-87
2022/01/26 15:43:49;;;;;;;89.82;49.10;;;;;;;;;;6130121;23;20009;-86
2022/01/26 16:08:32;;;;;;;257.73;90.50;;;;;;;;;;5999153;23;20015;-87
2022/01/26 16:16:38;;;;;;;136.93;66.97;;;;;;;;;;6014633;23;20018;-87
2022/01/26 17:24:31;;;;;;;75.93;42.30;;;;;;;;;;6221401;23;20016;-90
2022/01/26 18:06:00;;;;;;;348.27;130.00;;;;;;;;;;6222663;23;20280;-90
2022/01/26 18:15:52;;;;;;;81.88;42.63;;;;;;;;;;6224365;23;20059;-88
2022/01/26 18:27:05;;;;;;;85.85;41.92;;;;;;;;;;6222330;23;20283;-91
2022/01/26 18:32:25;;;;;;;75.43;39.70;;;;;;;;;;6190740;23;20399;-91
2022/01/26 18:51:10;;;;;;;70.13;37.63;;;;;;;;;;6190526;23;20019;-92
2022/01/26 18:53:36;;;;;;;81.00;41.92;;;;;;;;;;6165102;23;20002;-92
2022/01/26 18:56:03;;;;;;;80.57;43.22;;;;;;;;;;6190355;23;20059;-91
2022/01/26 18:58:29;;;;;;;86.43;42.50;;;;;;;;;;6190424;23;20067;-92
2022/01/26 19:00:55;;;;;;;86.57;41.30;;;;;;;;;;6211083;23;20022;-91
2022/01/26 19:03:21;;;;;;;86.97;42.72;;;;;;;;;;6222317;23;20008;-92
2022/01/26 19:05:47;;;;;;;78.03;38.75;;;;;;;;;;6222581;23;20004;-91
2022/01/26 19:08:16;;;;;;;83.82;40.70;;;;;;;;;;6222142;23;19997;-91
2022/01/26 19:10:44;;;;;;;72.47;38.40;;;;;;;;;;6221848;23;20004;-91
2022/01/26 19:13:10;;;;;;;83.00;41.13;;;;;;;;;;6195101;23;20016;-91
2022/01/26 19:15:36;;;;;;;70.82;37.90;;;;;;;;;;6221781;23;20380;-91
2022/01/26 19:18:09;;;;;;;78.72;39.70;;;;;;;;;;6195508;23;20084;-91
2022/01/26 19:20:52;;;;;;;72.55;36.33;;;;;;;;;;6195432;23;20015;-91
2022/01/26 19:25:52;;;;;;;71.90;34.67;;;;;;;;;;6195249;23;20024;-92
2022/01/26 19:28:30;;;;;;;72.97;35.15;;;;;;;;;;6221718;23;20027;-91
2022/01/26 19:52:11;;;;;;;70.68;36.78;;;;;;;;;;6015371;23;20283;-91
2022/01/26 19:54:38;;;;;;;68.13;36.05;;;;;;;;;;5992100;23;20004;-89
2022/01/26 19:57:04;;;;;;;74.88;36.08;;;;;;;;;;5991943;23;20003;-90
2022/01/26 19:59:31;;;;;;;78.18;39.03;;;;;;;;;;6015067;23;20012;-90
2022/01/26 20:01:57;;;;;;;80.72;39.50;;;;;;;;;;5992075;23;20035;-89
2022/01/26 20:04:24;;;;;;;77.15;38.00;;;;;;;;;;6015109;23;20014;-90
2022/01/26 20:06:50;;;;;;;70.93;38.00;;;;;;;;;;6014865;23;20399;-90
2022/01/26 20:09:25;;;;;;;74.18;39.47;;;;;;;;;;6014945;23;20440;-90
2022/01/26 20:11:56;;;;;;;68.68;37.47;;;;;;;;;;6014954;23;20024;-91
2022/01/26 20:14:26;;;;;;;74.68;39.63;;;;;;;;;;6015006;23;20052;-90
2022/01/26 20:16:52;;;;;;;79.32;39.42;;;;;;;;;;6014802;23;20003;-90
2022/01/26 20:19:18;;;;;;;103.38;46.08;;;;;;;;;;5991253;23;20301;-89
2022/01/26 20:21:45;;;;;;;102.18;47.10;;;;;;;;;;6162030;23;20012;-90
2022/01/26 20:24:15;;;;;;;92.70;44.33;;;;;;;;;;6221858;23;20051;-90
2022/01/26 20:26:41;;;;;;;112.63;49.72;;;;;;;;;;6209110;23;20030;-90
2022/01/26 20:29:07;;;;;;;108.50;48.42;;;;;;;;;;6221262;23;20005;-89
2022/01/26 20:31:33;;;;;;;120.10;48.53;;;;;;;;;;6221873;23;20012;-89
2022/01/26 20:34:02;;;;;;;107.53;45.75;;;;;;;;;;6221030;23;20012;-89
2022/01/26 20:36:29;;;;;;;124.35;48.50;;;;;;;;;;6194984;23;20005;-90
2022/01/26 20:38:56;;;;;;;102.47;44.55;;;;;;;;;;6220619;23;20004;-89
2022/01/26 20:41:22;;;;;;;78.18;37.40;;;;;;;;;;6221286;23;20001;-90
2022/01/26 20:43:48;;;;;;;88.88;41.20;;;;;;;;;;6193110;23;20008;-90
2022/01/26 20:46:14;;;;;;;93.50;39.38;;;;;;;;;;6221236;23;20028;-86
2022/01/26 20:48:40;;;;;;;74.00;37.22;;;;;;;;;;6221124;23;20008;-88
2022/01/26 20:51:06;;;;;;;72.32;33.63;;;;;;;;;;6221180;23;20000;-88
2022/01/26 20:53:33;;;;;;;97.65;39.22;;;;;;;;;;6193568;23;20030;-87
2022/01/26 20:55:59;;;;;;;80.82;35.85;;;;;;;;;;6194675;23;20080;-87
2022/01/26 20:58:26;;;;;;;110.85;42.58;;;;;;;;;;6194607;23;20005;-88
2022/01/26 21:00:52;;;;;;;111.75;42.70;;;;;;;;;;6194475;23;20017;-89
2022/01/26 21:03:19;;;;;;;134.23;48.70;;;;;;;;;;6221051;23;20135;-87
2022/01/26 21:05:45;;;;;;;98.57;43.50;;;;;;;;;;6220767;23;20007;-86
2022/01/26 21:08:11;;;;;;;88.10;40.10;;;;;;;;;;6193975;23;20008;-87
2022/01/26 21:10:37;;;;;;;96.13;41.42;;;;;;;;;;6194033;23;20360;-87
2022/01/26 21:13:06;;;;;;;77.82;36.13;;;;;;;;;;6220669;23;19997;-88
2022/01/26 21:15:32;;;;;;;75.22;34.75;;;;;;;;;;6194802;23;20048;-88
2022/01/26 21:17:58;;;;;;;61.38;31.63;;;;;;;;;;6221092;23;20079;-88
2022/01/26 21:20:24;;;;;;;62.58;31.30;;;;;;;;;;6194711;23;20356;-88
2022/01/26 21:22:53;;;;;;;63.53;32.15;;;;;;;;;;6221211;23;20031;-89
2022/01/26 21:25:20;;;;;;;62.83;29.88;;;;;;;;;;6221454;23;20237;-87
2022/01/26 21:27:48;;;;;;;57.90;29.38;;;;;;;;;;6220526;23;20027;-89
2022/01/26 21:30:14;;;;;;;61.40;33.58;;;;;;;;;;6194211;23;20005;-88
2022/01/26 21:32:41;;;;;;;58.88;32.75;;;;;;;;;;6195967;23;20008;-87
2022/01/26 21:35:07;;;;;;;62.95;32.85;;;;;;;;;;6222924;23;20023;-88
2022/01/26 21:37:33;;;;;;;62.47;32.53;;;;;;;;;;6223295;23;20003;-87
2022/01/26 21:39:59;;;;;;;57.72;32.00;;;;;;;;;;6223261;23;19997;-87
2022/01/26 21:42:25;;;;;;;57.13;31.85;;;;;;;;;;6222945;23;20055;-87
2022/01/26 21:44:52;;;;;;;61.58;31.75;;;;;;;;;;6222834;23;20024;-88
2022/01/26 21:47:18;;;;;;;60.83;31.92;;;;;;;;;;6196563;23;20054;-88
2022/01/26 21:49:47;;;;;;;51.40;29.33;;;;;;;;;;6223285;23;20016;-88
2022/01/26 21:52:13;;;;;;;52.85;30.38;;;;;;;;;;6222828;23;20063;-88
2022/01/26 21:54:39;;;;;;;54.58;30.20;;;;;;;;;;6196583;23;20028;-87
2022/01/26 21:57:05;;;;;;;51.92;30.00;;;;;;;;;;6196706;23;20032;-88
2022/01/26 21:59:31;;;;;;;57.67;30.60;;;;;;;;;;6222265;23;20021;-87
2022/01/26 22:01:57;;;;;;;54.95;29.88;;;;;;;;;;6223006;23;20383;-88
2022/01/26 22:04:24;;;;;;;55.22;31.25;;;;;;;;;;6222781;23;20028;-88
2022/01/26 22:06:50;;;;;;;70.38;34.53;;;;;;;;;;6222683;23;20009;-87
2022/01/26 22:09:16;;;;;;;73.30;36.33;;;;;;;;;;6222660;23;20007;-88
2022/01/26 22:17:50;;;;;;;60.63;31.42;;;;;;;;;;6222468;23;20013;-88